createdAt,value
2022-09-12T00:00:21.383Z,100.00
2022-09-12T00:02:47.720Z,100.00
2022-09-12T00:05:14.135Z,100.00
2022-09-12T00:07:40.626Z,100.00
2022-09-12T00:10:07.252Z,100.00
2022-09-12T00:12:33.609Z,100.00
2022-09-12T00:14:59.960Z,100.00
2022-09-12T00:17:26.312Z,100.00
2022-09-12T00:19:52.602Z,100.00
2022-09-12T00:22:19.003Z,100.00
2022-09-12T00:24:45.497Z,100.00
2022-09-12T00:27:11.871Z,100.00
2022-09-12T00:29:38.270Z,100.00
2022-09-12T00:32:04.659Z,100.00
2022-09-12T00:34:31.090Z,100.00
2022-09-12T00:36:57.423Z,100.00
2022-09-12T00:39:24.033Z,100.00
2022-09-12T00:41:50.431Z,100.00
2022-09-12T00:44:22.935Z,100.00
2022-09-12T00:47:05.110Z,100.00
2022-09-12T00:50:00.995Z,100.00
2022-09-12T00:52:46.708Z,100.00
2022-09-12T00:55:19.433Z,100.00
2022-09-12T00:58:01.953Z,100.00
2022-09-12T01:00:28.798Z,100.00
2022-09-12T01:03:00.022Z,100.00
2022-09-12T01:05:29.766Z,100.00
2022-09-12T01:07:57.029Z,100.00
2022-09-12T01:10:24.023Z,100.00
2022-09-12T01:12:50.599Z,100.00
2022-09-12T01:15:17.029Z,100.00
2022-09-12T01:18:01.951Z,100.00
2022-09-12T01:20:59.192Z,100.00
2022-09-12T01:24:01.679Z,100.00
2022-09-12T01:26:47.998Z,100.00
2022-09-12T01:29:33.611Z,100.00
2022-09-12T01:32:14.872Z,100.00
2022-09-12T01:34:59.076Z,100.00
2022-09-12T01:37:33.363Z,100.00
2022-09-12T01:40:25.083Z,100.00
2022-09-12T01:43:02.511Z,100.00
2022-09-12T01:45:44.045Z,100.00
2022-09-12T01:48:19.681Z,100.00
2022-09-12T01:50:55.357Z,100.00
2022-09-12T01:53:33.580Z,100.00
2022-09-12T01:56:11.495Z,100.00
2022-09-12T01:58:52.243Z,100.00
2022-09-12T02:01:27.292Z,100.00
2022-09-12T02:04:18.093Z,100.00
2022-09-12T02:06:49.600Z,100.00
2022-09-12T02:09:44.445Z,100.00
2022-09-12T02:12:14.760Z,100.00
2022-09-12T02:14:46.212Z,100.00
2022-09-12T02:17:24.550Z,100.00
2022-09-12T02:20:06.357Z,100.00
2022-09-12T02:22:37.293Z,100.00
2022-09-12T02:25:08.021Z,100.00
2022-09-12T02:27:42.846Z,100.00
2022-09-12T02:30:10.523Z,100.00
2022-09-12T02:33:07.101Z,100.00
2022-09-12T02:35:43.025Z,100.00
2022-09-12T02:38:17.583Z,100.00
2022-09-12T02:40:45.211Z,100.00
2022-09-12T02:43:11.878Z,100.00
2022-09-12T02:45:38.408Z,100.00
2022-09-12T02:48:09.026Z,100.00
2022-09-12T02:50:36.189Z,100.00
2022-09-12T02:53:03.452Z,100.00
2022-09-12T02:55:31.009Z,100.00
2022-09-12T02:57:57.401Z,100.00
2022-09-12T03:00:25.004Z,100.00
2022-09-12T03:03:15.262Z,100.00
2022-09-12T03:05:55.620Z,100.00
2022-09-12T03:08:43.449Z,100.00
2022-09-12T03:11:45.430Z,100.00
2022-09-12T03:14:31.376Z,100.00
2022-09-12T03:17:26.854Z,100.00
2022-09-12T03:20:10.615Z,100.00
2022-09-12T03:22:51.205Z,100.00
2022-09-12T03:25:48.580Z,100.00
2022-09-12T03:28:17.648Z,100.00
2022-09-12T03:30:49.186Z,100.00
2022-09-12T03:33:19.891Z,100.00
2022-09-12T03:35:47.449Z,100.00
2022-09-12T03:38:13.958Z,100.00
2022-09-12T03:40:40.439Z,100.00
2022-09-12T03:43:08.693Z,100.00
2022-09-12T03:45:36.333Z,100.00
2022-09-12T03:48:03.478Z,100.00
2022-09-12T03:50:29.818Z,100.00
2022-09-12T03:52:58.416Z,100.00
2022-09-12T03:55:24.744Z,100.00
2022-09-12T03:57:53.205Z,100.00
2022-09-12T04:00:20.083Z,100.00
2022-09-12T04:02:46.785Z,100.00
2022-09-12T04:05:13.310Z,100.00
2022-09-12T04:07:39.733Z,100.00
2022-09-12T04:10:06.625Z,100.00
2022-09-12T04:12:33.065Z,100.00
2022-09-12T04:14:59.459Z,100.00
2022-09-12T04:17:25.877Z,100.00
2022-09-12T04:19:52.526Z,100.00
2022-09-12T04:22:18.846Z,100.00
2022-09-12T04:24:45.522Z,100.00
2022-09-12T04:27:11.831Z,100.00
2022-09-12T04:29:38.218Z,100.00
2022-09-12T04:32:04.827Z,100.00
2022-09-12T04:34:31.847Z,100.00
2022-09-12T04:36:58.361Z,100.00
2022-09-12T04:39:24.766Z,100.00
2022-09-12T04:41:51.384Z,100.00
2022-09-12T04:44:17.802Z,100.00
2022-09-12T04:46:46.230Z,100.00
2022-09-12T04:49:14.173Z,100.00
2022-09-12T04:51:42.812Z,100.00
2022-09-12T04:54:13.155Z,100.00
2022-09-12T04:56:41.856Z,100.00
2022-09-12T04:59:09.078Z,100.00
2022-09-12T05:01:35.792Z,100.00
2022-09-12T05:04:02.744Z,100.00
2022-09-12T05:06:34.519Z,100.00
2022-09-12T05:09:02.613Z,100.00
2022-09-12T05:11:53.107Z,100.00
2022-09-12T05:14:18.446Z,100.00
2022-09-12T05:16:49.044Z,100.00
2022-09-12T05:19:15.882Z,100.00
2022-09-12T05:21:42.213Z,100.00
2022-09-12T05:24:10.690Z,100.00
2022-09-12T05:26:37.089Z,100.00
2022-09-12T05:29:04.828Z,100.00
2022-09-12T05:31:31.219Z,100.00
2022-09-12T05:33:57.652Z,100.00
2022-09-12T05:36:27.107Z,100.00
2022-09-12T05:38:53.744Z,100.00
2022-09-12T05:41:25.036Z,100.00
2022-09-12T05:44:12.491Z,100.00
2022-09-12T05:46:43.037Z,100.00
2022-09-12T05:49:11.487Z,100.00
2022-09-12T05:51:41.016Z,100.00
2022-09-12T05:54:10.115Z,100.00
2022-09-12T05:56:41.863Z,100.00
2022-09-12T05:59:22.525Z,100.00
2022-09-12T06:01:49.386Z,100.00
2022-09-12T06:04:16.130Z,100.00
2022-09-12T06:06:44.027Z,100.00
2022-09-12T06:09:11.482Z,100.00
2022-09-12T06:11:39.622Z,100.00
2022-09-12T06:14:06.548Z,100.00
2022-09-12T06:16:34.318Z,100.00
2022-09-12T06:19:04.444Z,100.00
2022-09-12T06:21:30.874Z,100.00
2022-09-12T06:23:57.749Z,100.00
2022-09-12T06:26:24.778Z,100.00
2022-09-12T06:28:53.133Z,100.00
2022-09-12T06:31:22.196Z,100.00
2022-09-12T06:33:50.900Z,100.00
2022-09-12T06:36:31.558Z,100.00
2022-09-12T06:39:03.454Z,100.00
2022-09-12T06:41:31.164Z,100.00
2022-09-12T06:43:58.489Z,100.00
2022-09-12T06:46:25.513Z,100.00
2022-09-12T06:48:52.210Z,100.00
2022-09-12T06:51:20.078Z,100.00
2022-09-12T06:53:47.874Z,100.00
2022-09-12T06:56:18.436Z,100.00
2022-09-12T06:58:46.050Z,100.00
2022-09-12T07:01:19.665Z,100.00
2022-09-12T07:03:51.568Z,100.00
2022-09-12T07:06:25.306Z,100.00
2022-09-12T07:08:51.703Z,100.00
2022-09-12T07:11:24.777Z,100.00
2022-09-12T07:13:55.663Z,100.00
2022-09-12T07:16:22.708Z,100.00
2022-09-12T07:18:53.987Z,100.00
2022-09-12T07:21:20.710Z,100.00
2022-09-12T07:23:48.215Z,100.00
2022-09-12T07:26:16.394Z,100.00
2022-09-12T07:28:43.723Z,100.00
2022-09-12T07:31:15.781Z,100.00
2022-09-12T07:33:43.387Z,100.00
2022-09-12T07:36:17.136Z,100.00
2022-09-12T07:38:44.346Z,100.00
2022-09-12T07:41:20.142Z,100.00
2022-09-12T07:43:46.965Z,100.00
2022-09-12T07:46:14.114Z,100.00
2022-09-12T07:48:40.651Z,100.00
2022-09-12T07:51:09.941Z,100.00
2022-09-12T07:53:46.171Z,100.00
2022-09-12T07:56:13.589Z,100.00
2022-09-12T07:58:42.407Z,100.00
2022-09-12T08:01:17.940Z,100.00
2022-09-12T08:03:48.332Z,100.00
2022-09-12T08:06:17.727Z,100.00
2022-09-12T08:08:44.025Z,100.00
2022-09-12T08:11:12.885Z,100.00
2022-09-12T08:13:41.565Z,100.00
2022-09-12T08:16:15.955Z,100.00
2022-09-12T08:18:42.379Z,100.00
2022-09-12T08:21:13.052Z,100.00
2022-09-12T08:23:39.356Z,100.00
2022-09-12T08:26:06.759Z,100.00
2022-09-12T08:28:35.090Z,98.33
2022-09-12T08:31:05.705Z,99.09
2022-09-12T08:33:32.728Z,100.00
2022-09-12T08:36:06.367Z,99.28
2022-09-12T08:38:36.679Z,97.48
2022-09-12T08:41:18.530Z,99.68
2022-09-12T08:43:56.762Z,98.91
2022-09-12T08:46:39.017Z,94.88
2022-09-12T08:49:10.821Z,95.53
2022-09-12T08:51:39.130Z,95.02
2022-09-12T08:54:18.940Z,90.48
2022-09-12T08:56:46.715Z,87.17
2022-09-12T08:59:13.222Z,87.05
2022-09-12T09:01:45.491Z,88.15
2022-09-12T09:04:14.957Z,86.76
2022-09-12T09:07:23.785Z,85.25
2022-09-12T09:10:22.197Z,84.42
2022-09-12T09:12:59.969Z,85.63
2022-09-12T09:16:07.906Z,84.20
2022-09-12T09:18:36.067Z,84.74
2022-09-12T09:21:12.000Z,82.06
2022-09-12T09:23:46.242Z,79.11
2022-09-12T09:26:28.997Z,78.62
2022-09-12T09:29:02.216Z,75.61
2022-09-12T09:31:34.869Z,75.11
2022-09-12T09:34:01.497Z,73.55
2022-09-12T09:36:50.305Z,72.93
2022-09-12T09:39:30.690Z,70.51
2022-09-12T09:42:34.695Z,69.91
2022-09-12T09:45:04.492Z,68.21
2022-09-12T09:47:30.877Z,65.37
2022-09-12T09:49:57.255Z,63.33
2022-09-12T09:52:30.502Z,63.80
2022-09-12T09:54:59.927Z,64.03
2022-09-12T09:57:35.158Z,64.10
2022-09-12T10:00:28.529Z,63.15
2022-09-12T10:03:19.574Z,58.60
2022-09-12T10:05:50.017Z,57.32
2022-09-12T10:08:22.777Z,58.04
2022-09-12T10:10:58.461Z,57.53
2022-09-12T10:13:34.506Z,58.04
2022-09-12T10:16:16.618Z,56.11
2022-09-12T10:18:43.523Z,54.70
2022-09-12T10:21:16.461Z,55.15
2022-09-12T10:23:43.505Z,53.42
2022-09-12T10:26:12.802Z,51.73
2022-09-12T10:28:43.845Z,51.58
2022-09-12T10:31:15.318Z,52.87
2022-09-12T10:33:48.364Z,51.82
2022-09-12T10:36:15.735Z,51.60
2022-09-12T10:38:50.448Z,51.70
2022-09-12T10:41:17.972Z,50.07
2022-09-12T10:43:45.000Z,48.85
2022-09-12T10:46:28.673Z,48.13
2022-09-12T10:49:19.436Z,49.35
2022-09-12T10:51:45.917Z,49.71
2022-09-12T10:54:12.862Z,49.21
2022-09-12T10:56:47.845Z,48.82
2022-09-12T10:59:28.779Z,45.87
2022-09-12T11:02:25.971Z,46.59
2022-09-12T11:05:08.901Z,45.98
2022-09-12T11:07:43.145Z,46.61
2022-09-12T11:10:26.112Z,45.82
2022-09-12T11:13:21.433Z,47.35
2022-09-12T11:15:56.777Z,46.81
2022-09-12T11:18:33.665Z,45.99
2022-09-12T11:21:06.789Z,45.94
2022-09-12T11:24:04.844Z,46.24
2022-09-12T11:26:43.950Z,46.52
2022-09-12T11:29:27.921Z,45.73
2022-09-12T11:32:21.717Z,45.33
2022-09-12T11:35:17.972Z,44.20
2022-09-12T11:38:08.925Z,43.99
2022-09-12T11:40:48.331Z,42.72
2022-09-12T11:43:48.454Z,44.47
2022-09-12T11:46:34.790Z,44.55
2022-09-12T11:49:10.645Z,43.34
2022-09-12T11:51:57.770Z,42.83
2022-09-12T11:54:59.113Z,42.55
2022-09-12T11:57:25.415Z,42.61
2022-09-12T11:59:59.876Z,41.50
2022-09-12T12:02:29.467Z,41.16
2022-09-12T12:05:06.599Z,42.10
2022-09-12T12:07:45.614Z,41.84
2022-09-12T12:10:31.791Z,41.73
2022-09-12T12:13:00.550Z,41.49
2022-09-12T12:15:28.702Z,41.26
2022-09-12T12:18:25.452Z,40.55
2022-09-12T12:20:53.448Z,40.28
2022-09-12T12:23:23.657Z,38.54
2022-09-12T12:25:54.477Z,40.49
2022-09-12T12:29:00.097Z,38.93
2022-09-12T12:31:26.696Z,38.42
2022-09-12T12:33:55.436Z,39.60
2022-09-12T12:36:41.268Z,39.14
2022-09-12T12:39:32.663Z,39.25
2022-09-12T12:42:01.976Z,38.91
2022-09-12T12:44:43.842Z,39.92
2022-09-12T12:47:22.675Z,39.97
2022-09-12T12:50:22.642Z,39.64
2022-09-12T12:52:59.253Z,40.39
2022-09-12T12:55:48.902Z,41.14
2022-09-12T12:58:38.268Z,39.26
2022-09-12T13:01:17.006Z,39.51
2022-09-12T13:03:46.384Z,39.38
2022-09-12T13:06:34.260Z,38.61
2022-09-12T13:09:05.826Z,38.15
2022-09-12T13:11:36.613Z,39.91
2022-09-12T13:14:05.991Z,39.25
2022-09-12T13:16:51.649Z,37.80
2022-09-12T13:19:26.460Z,38.14
2022-09-12T13:22:06.565Z,38.19
2022-09-12T13:24:33.809Z,37.58
2022-09-12T13:27:00.295Z,36.97
2022-09-12T13:29:28.161Z,36.00
2022-09-12T13:31:58.123Z,37.84
2022-09-12T13:34:56.779Z,37.38
2022-09-12T13:37:34.862Z,38.10
2022-09-12T13:40:22.874Z,37.63
2022-09-12T13:42:49.787Z,36.73
2022-09-12T13:45:22.726Z,37.85
2022-09-12T13:47:57.961Z,37.54
2022-09-12T13:50:28.837Z,37.64
2022-09-12T13:53:00.037Z,38.50
2022-09-12T13:55:33.677Z,36.87
2022-09-12T13:58:03.593Z,37.35
2022-09-12T14:00:32.052Z,36.85
2022-09-12T14:03:00.120Z,37.11
2022-09-12T14:05:26.772Z,37.22
2022-09-12T14:08:01.109Z,38.23
2022-09-12T14:10:33.624Z,38.39
2022-09-12T14:13:23.946Z,38.58
2022-09-12T14:15:51.657Z,38.02
2022-09-12T14:18:29.714Z,37.44
2022-09-12T14:21:09.163Z,37.42
2022-09-12T14:23:40.108Z,37.52
2022-09-12T14:26:10.957Z,38.08
2022-09-12T14:28:40.632Z,37.07
2022-09-12T14:31:30.176Z,36.47
2022-09-12T14:34:17.727Z,36.61
2022-09-12T14:36:50.622Z,36.71
2022-09-12T14:39:19.734Z,36.91
2022-09-12T14:41:46.132Z,37.14
2022-09-12T14:44:25.175Z,37.17
2022-09-12T14:46:52.117Z,37.81
2022-09-12T14:49:25.919Z,37.91
2022-09-12T14:51:53.101Z,38.27
2022-09-12T14:54:28.682Z,38.90
2022-09-12T14:56:56.366Z,38.82
2022-09-12T14:59:34.873Z,38.90
2022-09-12T15:02:19.404Z,39.49
2022-09-12T15:04:51.300Z,38.23
2022-09-12T15:07:33.549Z,38.49
2022-09-12T15:10:03.885Z,38.88
2022-09-12T15:12:30.093Z,38.76
2022-09-12T15:15:20.136Z,38.10
2022-09-12T15:17:46.707Z,38.55
2022-09-12T15:20:14.104Z,39.15
2022-09-12T15:22:41.969Z,38.98
2022-09-12T15:25:10.976Z,38.79
2022-09-12T15:27:37.367Z,38.87
2022-09-12T15:30:04.212Z,38.61
2022-09-12T15:32:30.589Z,38.63
2022-09-12T15:34:56.959Z,39.35
2022-09-12T15:37:24.228Z,39.70
2022-09-12T15:39:51.231Z,40.10
2022-09-12T15:42:24.013Z,40.03
2022-09-12T15:44:50.441Z,39.79
2022-09-12T15:47:16.791Z,39.85
2022-09-12T15:49:43.105Z,39.78
2022-09-12T15:52:15.232Z,40.75
2022-09-12T15:54:42.041Z,40.74
2022-09-12T15:57:08.749Z,40.84
2022-09-12T15:59:35.723Z,39.95
2022-09-12T16:02:02.138Z,40.36
2022-09-12T16:04:29.790Z,40.74
2022-09-12T16:06:56.856Z,40.22
2022-09-12T16:09:23.899Z,40.98
2022-09-12T16:11:50.520Z,40.70
2022-09-12T16:14:18.768Z,40.90
2022-09-12T16:16:52.000Z,40.56
2022-09-12T16:19:18.392Z,40.86
2022-09-12T16:21:44.789Z,40.76
2022-09-12T16:24:11.357Z,39.97
2022-09-12T16:26:37.788Z,40.63
2022-09-12T16:29:04.242Z,42.92
2022-09-12T16:31:30.570Z,42.32
2022-09-12T16:33:56.896Z,42.55
2022-09-12T16:36:23.358Z,42.13
2022-09-12T16:38:51.873Z,42.37
2022-09-12T16:41:20.736Z,42.73
2022-09-12T16:43:47.541Z,42.15
2022-09-12T16:46:19.110Z,43.98
2022-09-12T16:48:51.825Z,43.18
2022-09-12T16:51:22.165Z,43.43
2022-09-12T16:53:49.461Z,44.49
2022-09-12T16:56:15.905Z,44.46
2022-09-12T16:58:43.236Z,44.94
2022-09-12T17:01:12.248Z,44.58
2022-09-12T17:03:39.172Z,44.84
2022-09-12T17:06:17.317Z,45.39
2022-09-12T17:08:46.597Z,45.84
2022-09-12T17:11:15.904Z,46.98
2022-09-12T17:14:03.743Z,47.62
2022-09-12T17:16:32.357Z,48.83
2022-09-12T17:18:58.772Z,49.48
2022-09-12T17:21:25.451Z,49.79
2022-09-12T17:23:51.897Z,49.95
2022-09-12T17:26:18.448Z,49.65
2022-09-12T17:28:44.959Z,49.53
2022-09-12T17:31:13.809Z,49.83
2022-09-12T17:33:41.196Z,50.26
2022-09-12T17:36:16.054Z,50.86
2022-09-12T17:38:43.712Z,50.99
2022-09-12T17:41:16.259Z,51.80
2022-09-12T17:43:44.172Z,53.14
2022-09-12T17:46:10.693Z,53.76
2022-09-12T17:48:37.253Z,53.34
2022-09-12T17:51:14.140Z,54.01
2022-09-12T17:53:41.500Z,53.86
2022-09-12T17:56:08.734Z,61.37
2022-09-12T17:58:35.701Z,66.26
2022-09-12T18:01:04.926Z,68.25
2022-09-12T18:03:31.499Z,70.18
2022-09-12T18:05:57.822Z,71.94
2022-09-12T18:08:24.477Z,73.41
2022-09-12T18:10:51.801Z,75.33
2022-09-12T18:13:18.250Z,76.85
2022-09-12T18:15:44.707Z,77.91
2022-09-12T18:18:11.096Z,78.99
2022-09-12T18:20:37.397Z,79.81
2022-09-12T18:23:03.999Z,80.80
2022-09-12T18:25:30.352Z,81.44
2022-09-12T18:27:57.179Z,82.24
2022-09-12T18:30:23.587Z,83.42
2022-09-12T18:32:50.108Z,84.19
2022-09-12T18:35:16.971Z,85.94
2022-09-12T18:37:43.299Z,87.93
2022-09-12T18:40:10.385Z,90.06
2022-09-12T18:42:36.801Z,91.60
2022-09-12T18:45:03.273Z,92.99
2022-09-12T18:47:29.590Z,94.69
2022-09-12T18:49:55.921Z,95.67
2022-09-12T18:52:23.596Z,96.10
2022-09-12T18:54:50.288Z,96.20
2022-09-12T18:57:16.703Z,96.18
2022-09-12T18:59:43.000Z,96.85
2022-09-12T19:02:15.804Z,97.76
2022-09-12T19:04:42.350Z,99.08
2022-09-12T19:07:08.851Z,99.76
2022-09-12T19:09:35.501Z,100.00
2022-09-12T19:12:02.042Z,100.00
2022-09-12T19:14:28.512Z,100.00
2022-09-12T19:16:54.825Z,100.00
2022-09-12T19:19:21.572Z,100.00
2022-09-12T19:21:48.010Z,100.00
2022-09-12T19:24:14.456Z,100.00
2022-09-12T19:26:41.354Z,100.00
2022-09-12T19:29:08.441Z,100.00
2022-09-12T19:31:34.892Z,100.00
2022-09-12T19:34:02.977Z,100.00
2022-09-12T19:36:46.622Z,100.00
2022-09-12T19:39:13.692Z,100.00
2022-09-12T19:41:40.185Z,100.00
2022-09-12T19:44:06.653Z,100.00
2022-09-12T19:46:33.189Z,100.00
2022-09-12T19:48:59.906Z,100.00
2022-09-12T19:51:26.458Z,100.00
2022-09-12T19:53:52.827Z,100.00
2022-09-12T19:56:19.327Z,100.00
2022-09-12T19:58:50.868Z,100.00
2022-09-12T20:01:23.347Z,100.00
2022-09-12T20:03:50.643Z,100.00
2022-09-12T20:06:17.467Z,100.00
2022-09-12T20:08:44.744Z,100.00
2022-09-12T20:11:14.173Z,100.00
2022-09-12T20:13:40.974Z,100.00
2022-09-12T20:16:15.015Z,100.00
2022-09-12T20:18:45.122Z,100.00
2022-09-12T20:21:20.126Z,100.00
2022-09-12T20:23:46.802Z,100.00
2022-09-12T20:26:13.365Z,100.00
2022-09-12T20:28:40.528Z,100.00
2022-09-12T20:31:12.116Z,100.00
2022-09-12T20:33:39.567Z,100.00
2022-09-12T20:36:17.458Z,100.00
2022-09-12T20:38:49.193Z,100.00
2022-09-12T20:41:16.814Z,100.00
2022-09-12T20:43:43.452Z,100.00
2022-09-12T20:46:10.905Z,100.00
2022-09-12T20:48:38.673Z,100.00
2022-09-12T20:51:05.435Z,100.00
2022-09-12T20:53:34.827Z,100.00
2022-09-12T20:56:02.564Z,100.00
2022-09-12T20:58:28.976Z,100.00
2022-09-12T21:00:55.381Z,100.00
2022-09-12T21:03:21.792Z,100.00
2022-09-12T21:05:49.190Z,100.00
2022-09-12T21:08:15.507Z,100.00
2022-09-12T21:10:43.233Z,100.00
2022-09-12T21:13:13.603Z,100.00
2022-09-12T21:15:41.474Z,100.00
2022-09-12T21:18:08.136Z,100.00
2022-09-12T21:20:34.892Z,100.00
2022-09-12T21:23:01.679Z,100.00
2022-09-12T21:25:28.974Z,100.00
2022-09-12T21:27:55.662Z,100.00
2022-09-12T21:30:22.097Z,100.00
2022-09-12T21:32:48.468Z,100.00
2022-09-12T21:35:14.846Z,100.00
2022-09-12T21:37:41.160Z,100.00
2022-09-12T21:40:07.756Z,100.00
2022-09-12T21:42:34.101Z,100.00
2022-09-12T21:45:00.401Z,100.00
2022-09-12T21:47:26.751Z,100.00
2022-09-12T21:49:53.087Z,100.00
2022-09-12T21:52:19.599Z,100.00
2022-09-12T21:54:45.933Z,100.00
2022-09-12T21:57:12.418Z,100.00
2022-09-12T21:59:40.131Z,100.00
2022-09-12T22:02:06.844Z,100.00
2022-09-12T22:04:33.172Z,100.00
2022-09-12T22:06:59.492Z,100.00
2022-09-12T22:09:25.850Z,100.00
2022-09-12T22:11:52.114Z,100.00
2022-09-12T22:14:18.728Z,100.00
2022-09-12T22:16:45.069Z,100.00
2022-09-12T22:19:11.450Z,100.00
2022-09-12T22:21:37.738Z,100.00
2022-09-12T22:24:04.182Z,100.00
2022-09-12T22:26:31.298Z,100.00
2022-09-12T22:28:57.940Z,100.00
2022-09-12T22:31:24.300Z,100.00
2022-09-12T22:33:50.697Z,100.00
2022-09-12T22:36:17.025Z,100.00
2022-09-12T22:38:43.759Z,100.00
2022-09-12T22:41:11.769Z,100.00
2022-09-12T22:43:38.418Z,100.00
2022-09-12T22:46:09.995Z,100.00
2022-09-12T22:48:36.707Z,100.00
2022-09-12T22:51:03.381Z,100.00
2022-09-12T22:53:29.724Z,100.00
2022-09-12T22:55:56.074Z,100.00
2022-09-12T22:58:22.462Z,100.00
2022-09-12T23:00:50.203Z,100.00
2022-09-12T23:03:20.589Z,100.00
2022-09-12T23:05:47.877Z,100.00
2022-09-12T23:08:15.373Z,100.00
2022-09-12T23:10:41.989Z,100.00
2022-09-12T23:13:08.337Z,100.00
2022-09-12T23:15:34.696Z,100.00
2022-09-12T23:18:01.159Z,100.00
2022-09-12T23:20:27.816Z,100.00
2022-09-12T23:22:54.132Z,100.00
2022-09-12T23:25:21.247Z,100.00
2022-09-12T23:27:47.751Z,100.00
2022-09-12T23:30:14.100Z,100.00
2022-09-12T23:32:40.778Z,100.00
2022-09-12T23:35:07.519Z,100.00
2022-09-12T23:37:33.995Z,100.00
2022-09-12T23:40:00.707Z,100.00
2022-09-12T23:42:27.167Z,100.00
2022-09-12T23:44:53.844Z,100.00
2022-09-12T23:47:21.392Z,100.00
2022-09-12T23:49:47.691Z,100.00
2022-09-12T23:52:14.027Z,100.00
2022-09-12T23:54:40.353Z,100.00
2022-09-12T23:57:06.659Z,100.00
2022-09-12T23:59:32.953Z,100.00
